Time;durP1;ratioP1;P1;durP2;ratioP2;P2;SDS_P1;SDS_P2;PMS_P1;PMS_P2;Temp;Humidity;BMP_temperature;BMP_pressure;BME280_temperature;BME280_humidity;BME280_pressure;Samples;Min_cycle;Max_cycle;Signal;HPM_P1;HPM_P2
2022/06/10 00:01:13;;;;;;;0.20;0.20;;;;;;;19.59;64.43;98882.38;4754275;30;20432;-90
2022/06/10 00:03:41;;;;;;;0.20;0.20;;;;;;;19.51;64.59;98872.97;4754609;30;20052;-90
2022/06/10 00:06:10;;;;;;;0.20;0.20;;;;;;;19.49;64.80;98877.91;4754401;30;20068;-90
2022/06/10 00:08:44;;;;;;;0.20;0.20;;;;;;;19.52;64.73;98876.50;4755057;30;20067;-90
2022/06/10 00:11:12;;;;;;;0.20;0.20;;;;;;;19.46;64.46;98878.53;4757959;30;20103;-91
2022/06/10 00:13:44;;;;;;;0.20;0.20;;;;;;;19.44;64.78;98878.84;4757570;30;20079;-90
2022/06/10 00:16:14;;;;;;;0.20;0.20;;;;;;;19.35;64.83;98871.69;4760577;30;20052;-90
2022/06/10 00:18:41;;;;;;;0.20;0.20;;;;;;;19.46;64.82;98887.56;4771111;30;20055;-91
2022/06/10 00:21:11;;;;;;;0.20;0.20;;;;;;;19.44;64.88;98880.75;4770622;30;20090;-90
2022/06/10 00:23:39;;;;;;;0.20;0.20;;;;;;;19.45;64.99;98890.63;4769717;30;20119;-90
2022/06/10 00:26:06;;;;;;;0.20;0.20;;;;;;;19.40;65.62;98891.53;4764165;30;20084;-89
2022/06/10 00:28:34;;;;;;;0.20;0.20;;;;;;;19.34;65.67;98881.78;4750557;30;20059;-91
2022/06/10 00:31:06;;;;;;;0.20;0.20;;;;;;;19.39;65.53;98884.41;4777015;30;20063;-90
2022/06/10 00:33:34;;;;;;;0.20;0.20;;;;;;;19.46;65.33;98890.28;4761378;30;20064;-90
2022/06/10 00:36:03;;;;;;;0.20;0.20;;;;;;;19.51;64.59;98894.84;4758301;30;20063;-90
2022/06/10 00:38:30;;;;;;;0.20;0.20;;;;;;;19.57;63.96;98896.38;4754878;30;20085;-90
2022/06/10 00:40:57;;;;;;;0.20;0.20;;;;;;;19.62;64.08;98895.44;4755203;30;20060;-90
2022/06/10 00:43:33;;;;;;;0.20;0.20;;;;;;;19.70;63.06;98898.31;4757404;30;20052;-89
2022/06/10 00:46:11;;;;;;;0.20;0.20;;;;;;;19.73;63.27;98901.56;4755884;30;20513;-90
2022/06/10 00:48:49;;;;;;;0.20;0.20;;;;;;;19.73;63.14;98905.09;4756604;30;20083;-90
2022/06/10 00:51:28;;;;;;;0.20;0.20;;;;;;;19.77;62.75;98900.59;4753500;30;20060;-89
2022/06/10 00:54:07;;;;;;;0.20;0.20;;;;;;;19.81;62.58;98898.88;4753674;30;20139;-91
2022/06/10 00:56:34;;;;;;;0.20;0.20;;;;;;;19.85;61.66;98910.84;4752470;30;20477;-90
2022/06/10 00:59:06;;;;;;;0.20;0.20;;;;;;;19.88;61.29;98909.44;4753757;30;20424;-89
2022/06/10 01:01:34;;;;;;;0.20;0.20;;;;;;;19.95;60.60;98917.19;4738276;30;20056;-90
2022/06/10 01:04:02;;;;;;;0.20;0.20;;;;;;;19.98;59.91;98919.31;4753744;30;20059;-90
2022/06/10 01:06:30;;;;;;;0.20;0.20;;;;;;;19.98;60.46;98924.78;4738311;30;20147;-90
2022/06/10 01:08:58;;;;;;;0.20;0.20;;;;;;;19.98;60.21;98927.53;4752391;30;20520;-90
2022/06/10 01:11:31;;;;;;;0.20;0.20;;;;;;;19.98;60.39;98930.28;4737473;30;20067;-91
2022/06/10 01:14:07;;;;;;;0.20;0.20;;;;;;;19.98;60.27;98928.38;4753415;30;20552;-90
2022/06/10 01:16:40;;;;;;;0.20;0.20;;;;;;;19.97;60.37;98932.22;4753591;30;20575;-91
2022/06/10 01:19:10;;;;;;;0.20;0.20;;;;;;;19.99;60.13;98935.47;4752679;30;20431;-91
2022/06/10 01:22:05;;;;;;;0.20;0.20;;;;;;;20.01;60.45;98943.38;4753764;30;20056;-90
2022/06/10 01:24:50;;;;;;;0.20;0.20;;;;;;;19.99;60.05;98948.34;4752014;30;20479;-90
2022/06/10 01:27:59;;;;;;;0.20;0.20;;;;;;;19.99;59.87;98940.94;4752053;30;20050;-90
2022/06/10 01:30:44;;;;;;;0.20;0.20;;;;;;;19.95;59.80;98945.41;4753111;30;20052;-90
2022/06/10 01:33:23;;;;;;;0.20;0.20;;;;;;;19.92;60.02;98946.81;4758883;30;20106;-90
2022/06/10 01:36:02;;;;;;;0.20;0.20;;;;;;;19.98;60.20;98949.44;4758852;30;20503;-90
2022/06/10 01:38:29;;;;;;;0.20;0.20;;;;;;;19.98;59.74;98944.81;4752117;30;20540;-90
2022/06/10 01:41:05;;;;;;;0.20;0.20;;;;;;;20.04;59.56;98948.22;4752491;30;20117;-90
2022/06/10 01:44:03;;;;;;;0.20;0.20;;;;;;;20.06;59.38;98946.00;4752249;30;20086;-90
2022/06/10 01:46:34;;;;;;;0.20;0.20;;;;;;;20.01;59.71;98943.38;4752644;30;20101;-90
2022/06/10 01:49:11;;;;;;;0.20;0.20;;;;;;;20.01;60.16;98940.63;4751697;30;20064;-90
2022/06/10 01:51:45;;;;;;;0.20;0.20;;;;;;;19.98;60.28;98938.50;4751396;30;20063;-89
2022/06/10 01:54:54;;;;;;;0.20;0.20;;;;;;;19.91;60.88;98938.94;4765980;30;20134;-90
2022/06/10 01:57:36;;;;;;;0.28;0.28;;;;;;;19.81;61.71;98934.47;4752432;30;20070;-91
2022/06/10 02:00:17;;;;;;;0.20;0.20;;;;;;;19.77;61.97;98933.47;4751621;30;20117;-90
2022/06/10 02:02:53;;;;;;;0.20;0.20;;;;;;;19.73;62.02;98927.00;4737022;30;20063;-90
2022/06/10 02:05:22;;;;;;;0.20;0.20;;;;;;;19.62;62.38;98926.38;4736393;30;20072;-90
2022/06/10 02:07:53;;;;;;;0.20;0.20;;;;;;;19.70;63.25;98933.09;4736867;30;20052;-90
2022/06/10 02:10:33;;;;;;;0.20;0.20;;;;;;;19.67;63.13;98928.22;4751967;30;20052;-90
2022/06/10 02:13:06;;;;;;;0.20;0.20;;;;;;;19.61;63.62;98929.41;4736583;30;20139;-90
2022/06/10 02:15:37;;;;;;;0.20;0.20;;;;;;;19.57;64.84;98937.44;4753513;30;20056;-90
2022/06/10 02:18:14;;;;;;;0.20;0.20;;;;;;;19.57;65.52;98958.50;4752132;30;20097;-91
2022/06/10 02:20:54;;;;;;;0.20;0.20;;;;;;;19.57;65.35;98961.25;4750892;30;20056;-90
2022/06/10 02:23:25;;;;;;;0.20;0.20;;;;;;;19.59;65.10;98959.00;4752206;30;20103;-90
2022/06/10 02:25:55;;;;;;;0.20;0.20;;;;;;;19.66;64.84;98973.09;4736664;30;20461;-90
2022/06/10 02:28:27;;;;;;;0.20;0.20;;;;;;;19.62;65.16;98972.09;4736263;30;20056;-90
2022/06/10 02:31:10;;;;;;;0.20;0.20;;;;;;;19.57;65.54;98972.19;4752051;30;20103;-91
2022/06/10 02:33:38;;;;;;;0.20;0.20;;;;;;;19.48;65.75;98969.34;4763526;30;20060;-89
2022/06/10 02:36:23;;;;;;;0.20;0.20;;;;;;;19.57;66.04;98972.19;4747367;30;20052;-90
2022/06/10 02:39:03;;;;;;;0.20;0.20;;;;;;;19.53;66.47;98968.44;4753085;30;20060;-91
2022/06/10 02:41:39;;;;;;;0.30;0.30;;;;;;;19.49;67.09;98984.66;4750399;30;20466;-90
2022/06/10 02:44:35;;;;;;;0.20;0.20;;;;;;;19.32;68.23;99006.31;4751154;30;20119;-90
2022/06/10 02:47:34;;;;;;;0.20;0.20;;;;;;;19.01;69.56;98999.47;4752423;30;20056;-90
2022/06/10 02:50:02;;;;;;;0.20;0.20;;;;;;;18.85;70.31;98998.13;4752071;30;20129;-90
2022/06/10 02:52:34;;;;;;;0.20;0.20;;;;;;;18.78;70.40;98994.97;4750833;30;20463;-90
2022/06/10 02:55:04;;;;;;;0.30;0.30;;;;;;;18.74;71.10;98988.47;4751956;30;20516;-89
2022/06/10 03:03:25;;;;;;;0.30;0.30;;;;;;;19.02;70.67;98979.25;4751690;30;20152;-90
2022/06/10 03:06:00;;;;;;;0.28;0.28;;;;;;;19.15;69.75;98971.38;4751975;30;20052;-90
2022/06/10 03:08:29;;;;;;;0.20;0.20;;;;;;;19.25;69.51;98969.25;4750933;30;20325;-90
2022/06/10 03:11:20;;;;;;;0.30;0.30;;;;;;;19.28;69.62;98960.44;4750765;30;20052;-90
2022/06/10 03:14:26;;;;;;;0.20;0.20;;;;;;;19.40;68.76;98951.72;4752350;30;20060;-90
2022/06/10 03:17:02;;;;;;;0.30;0.30;;;;;;;19.52;68.71;98953.13;4751588;30;20052;-90
2022/06/10 03:19:38;;;;;;;0.30;0.30;;;;;;;19.61;68.36;98956.78;4751619;30;20075;-90
2022/06/10 03:22:08;;;;;;;0.20;0.20;;;;;;;19.67;68.17;98950.94;4751440;30;20615;-90
2022/06/10 03:24:40;;;;;;;0.30;0.30;;;;;;;19.77;67.80;98949.88;4752939;30;20063;-90
2022/06/10 03:27:15;;;;;;;0.30;0.30;;;;;;;19.96;67.24;98940.75;4736826;30;20546;-91
2022/06/10 03:30:08;;;;;;;0.30;0.30;;;;;;;20.16;66.51;98943.03;4750888;30;20056;-89
2022/06/10 03:32:57;;;;;;;0.30;0.30;;;;;;;20.23;66.04;98948.06;4765640;30;20455;-90
2022/06/10 03:35:33;;;;;;;0.25;0.25;;;;;;;20.28;66.34;98948.78;4751071;30;20056;-90
2022/06/10 03:38:02;;;;;;;0.20;0.20;;;;;;;20.37;66.19;98953.50;4752833;30;20505;-90
2022/06/10 03:40:31;;;;;;;0.20;0.20;;;;;;;20.40;66.14;98961.09;4752447;30;20067;-90
2022/06/10 03:43:01;;;;;;;0.20;0.20;;;;;;;20.42;66.52;98959.66;4751910;30;20463;-89
2022/06/10 03:45:34;;;;;;;0.30;0.30;;;;;;;20.54;66.49;98961.88;4751511;30;20052;-90
2022/06/10 03:48:02;;;;;;;0.20;0.20;;;;;;;20.64;66.40;98960.84;4770009;30;20064;-91
2022/06/10 03:50:33;;;;;;;0.20;0.20;;;;;;;20.62;66.48;98955.66;4767291;30;20067;-90
2022/06/10 03:53:00;;;;;;;0.30;0.30;;;;;;;20.74;66.56;98972.34;4770799;30;20113;-90
2022/06/10 03:55:27;;;;;;;0.20;0.20;;;;;;;20.73;66.43;98976.19;4770516;30;20060;-89
2022/06/10 03:57:54;;;;;;;0.22;0.22;;;;;;;20.76;66.00;98975.59;4769289;30;20072;-88
2022/06/10 04:00:25;;;;;;;0.20;0.20;;;;;;;20.82;65.66;98979.03;4767618;30;20060;-90
2022/06/10 04:02:53;;;;;;;0.20;0.20;;;;;;;20.99;65.26;98983.81;4769438;30;20052;-90
2022/06/10 04:05:20;;;;;;;0.20;0.20;;;;;;;21.07;64.80;98976.75;4766573;30;20060;-89
2022/06/10 04:07:47;;;;;;;0.20;0.20;;;;;;;21.16;64.54;98974.84;4752720;30;20056;-89
2022/06/10 04:10:19;;;;;;;0.20;0.20;;;;;;;21.24;64.41;98976.81;4749240;30;20101;-88
2022/06/10 04:12:46;;;;;;;0.20;0.20;;;;;;;21.51;63.90;98981.31;4759242;30;20161;-89
2022/06/10 04:15:39;;;;;;;0.20;0.20;;;;;;;21.78;62.64;98976.75;4765380;30;20053;-89
2022/06/10 04:18:06;;;;;;;0.20;0.20;;;;;;;21.86;61.86;98975.94;4769500;30;20048;-89
2022/06/10 04:20:36;;;;;;;0.20;0.20;;;;;;;21.94;60.39;98980.63;4759449;30;20109;-90
2022/06/10 04:23:04;;;;;;;0.20;0.20;;;;;;;21.95;61.15;98975.94;4765638;30;20106;-88
2022/06/10 04:25:34;;;;;;;0.20;0.20;;;;;;;22.06;60.20;98978.06;4782123;30;20063;-90
2022/06/10 04:28:01;;;;;;;0.20;0.20;;;;;;;22.10;59.29;98977.44;4760209;30;20056;-87
2022/06/10 04:30:39;;;;;;;0.20;0.20;;;;;;;21.97;59.37;98966.25;4753390;30;20440;-87
2022/06/10 04:33:07;;;;;;;0.20;0.20;;;;;;;22.08;58.71;98969.53;4753108;30;20069;-86
2022/06/10 04:35:38;;;;;;;0.20;0.20;;;;;;;21.97;58.90;98974.50;4752459;30;20474;-91
2022/06/10 04:38:06;;;;;;;0.20;0.20;;;;;;;22.16;58.77;98971.47;4738885;30;20185;-90
2022/06/10 04:40:36;;;;;;;0.25;0.25;;;;;;;22.42;58.87;98971.50;4755935;30;20060;-90
2022/06/10 04:43:08;;;;;;;0.20;0.20;;;;;;;22.66;58.32;98973.75;4580931;29;10001128;-90
2022/06/10 04:45:44;;;;;;;0.20;0.20;;;;;;;22.73;57.49;98973.25;4756425;30;20279;-90
2022/06/10 04:48:12;;;;;;;0.20;0.20;;;;;;;22.65;57.32;98979.56;4749193;30;20056;-90
2022/06/10 04:50:43;;;;;;;0.20;0.20;;;;;;;22.40;57.82;98975.69;4745508;30;20060;-89
2022/06/10 04:53:11;;;;;;;0.20;0.20;;;;;;;22.23;58.04;98974.59;4749116;30;20063;-88
2022/06/10 04:55:38;;;;;;;0.20;0.20;;;;;;;22.12;58.20;98966.94;4758318;30;20079;-90
2022/06/10 04:58:06;;;;;;;0.20;0.20;;;;;;;22.21;59.01;98974.09;4757375;30;20052;-90
2022/06/10 05:00:39;;;;;;;0.20;0.20;;;;;;;22.48;58.79;98980.38;4753915;30;20151;-89
2022/06/10 05:03:07;;;;;;;0.20;0.20;;;;;;;22.48;56.92;98981.22;4753588;30;20052;-90
2022/06/10 05:05:35;;;;;;;0.20;0.20;;;;;;;22.37;56.92;98988.16;4752460;30;20479;-89
2022/06/10 05:08:02;;;;;;;0.20;0.20;;;;;;;22.46;56.64;98986.22;4755178;30;20052;-89
2022/06/10 05:10:31;;;;;;;0.20;0.20;;;;;;;22.46;57.23;98985.41;4739309;30;20084;-89
2022/06/10 05:12:58;;;;;;;0.20;0.20;;;;;;;22.59;56.39;98986.38;4766563;30;20067;-89
2022/06/10 05:15:28;;;;;;;0.20;0.20;;;;;;;22.60;57.31;98986.03;4758146;30;20066;-89
2022/06/10 05:17:57;;;;;;;0.20;0.20;;;;;;;22.71;58.19;98986.50;4748060;30;20052;-89
2022/06/10 05:20:31;;;;;;;0.20;0.20;;;;;;;22.86;58.00;98991.50;4739673;30;20079;-89
2022/06/10 05:23:02;;;;;;;0.20;0.20;;;;;;;22.88;57.73;98989.25;4758306;30;20053;-92
2022/06/10 05:25:31;;;;;;;0.20;0.20;;;;;;;22.90;57.75;98989.72;4753770;30;20049;-92
2022/06/10 05:27:58;;;;;;;0.20;0.20;;;;;;;23.01;57.66;98992.16;4755335;30;20056;-92
2022/06/10 05:30:33;;;;;;;0.20;0.20;;;;;;;23.07;56.47;98990.88;4764766;30;20076;-94
2022/06/10 05:33:12;;;;;;;0.20;0.20;;;;;;;23.15;56.57;98998.28;4748917;29;20040;-92
2022/06/10 05:35:49;;;;;;;0.10;0.10;;;;;;;23.26;55.99;98993.22;4760188;30;20048;-96
2022/06/10 05:38:56;;;;;;;0.20;0.20;;;;;;;23.34;54.80;98997.91;4730640;30;20052;-94
2022/06/10 05:44:25;;;;;;;0.20;0.20;;;;;;;23.07;54.48;98999.13;4758497;30;20602;-93
2022/06/10 05:46:55;;;;;;;0.20;0.20;;;;;;;23.18;54.64;98997.63;4740954;30;20159;-95
2022/06/10 05:49:47;;;;;;;0.20;0.20;;;;;;;23.21;54.48;98988.72;4733006;30;20071;-96
2022/06/10 05:52:40;;;;;;;0.20;0.20;;;;;;;23.55;53.60;99006.25;4744660;30;20078;-93
2022/06/10 05:55:14;;;;;;;0.20;0.20;;;;;;;23.49;53.57;98993.78;4743286;30;20155;-93
2022/06/10 05:57:43;;;;;;;0.20;0.20;;;;;;;23.59;54.37;99004.44;4702124;30;20525;-92
2022/06/10 06:00:16;;;;;;;0.20;0.20;;;;;;;23.83;54.40;99003.88;4739319;30;20056;-95
2022/06/10 06:02:59;;;;;;;0.20;0.20;;;;;;;24.10;53.14;98999.81;4725251;30;20080;-94
2022/06/10 06:05:29;;;;;;;0.20;0.20;;;;;;;24.17;52.29;99005.59;4721151;30;20056;-95
2022/06/10 06:07:57;;;;;;;0.20;0.20;;;;;;;24.23;52.48;99004.28;4708450;30;20138;-93
2022/06/10 06:10:28;;;;;;;0.20;0.20;;;;;;;24.27;52.34;98998.09;4707798;30;20076;-94
2022/06/10 06:12:57;;;;;;;0.20;0.20;;;;;;;24.29;52.36;98999.38;4705813;30;20084;-96
2022/06/10 06:15:26;;;;;;;0.20;0.20;;;;;;;24.25;50.97;99005.88;4718276;30;20056;-94
2022/06/10 06:17:56;;;;;;;0.20;0.20;;;;;;;24.17;51.82;98999.28;4721243;30;20138;-95
2022/06/10 06:20:28;;;;;;;0.20;0.20;;;;;;;24.24;52.10;98988.53;4719287;30;20060;-96
2022/06/10 06:22:58;;;;;;;0.20;0.20;;;;;;;24.15;52.26;99005.13;4767565;29;20072;-96
2022/06/10 06:25:31;;;;;;;0.20;0.20;;;;;;;24.36;51.83;99005.16;4757424;30;20091;-92
2022/06/10 06:27:59;;;;;;;0.20;0.20;;;;;;;24.42;51.27;99008.50;4755840;29;20053;-95
2022/06/10 06:30:34;;;;;;;0.20;0.20;;;;;;;24.49;50.46;98995.03;4766476;29;20052;-92
2022/06/10 06:33:08;;;;;;;0.20;0.20;;;;;;;24.34;50.06;99012.94;4739206;30;20060;-95
2022/06/10 06:35:37;;;;;;;0.20;0.20;;;;;;;24.11;50.68;98998.69;4737839;30;20120;-94
2022/06/10 06:38:11;;;;;;;0.20;0.20;;;;;;;24.17;50.28;98997.31;4744206;29;20052;-95
2022/06/10 06:55:26;;;;;;;0.20;0.20;;;;;;;24.34;50.14;98968.03;4760236;29;20057;-96
2022/06/10 06:57:59;;;;;;;0.20;0.20;;;;;;;24.69;49.30;98992.56;4773174;29;20092;-90
2022/06/10 07:00:40;;;;;;;0.22;0.22;;;;;;;24.58;49.29;98967.34;4759374;29;20072;-95
2022/06/10 07:25:51;;;;;;;0.20;0.20;;;;;;;25.30;48.85;99006.59;4908707;24;20064;-90
2022/06/10 07:28:19;;;;;;;0.20;0.20;;;;;;;25.71;49.18;98999.25;4752084;30;20481;-93
2022/06/10 07:30:49;;;;;;;0.10;0.10;;;;;;;25.94;47.39;99005.16;4778533;29;20051;-96
2022/06/10 07:33:31;;;;;;;0.10;0.10;;;;;;;25.59;47.50;99007.53;4755513;30;20068;-96
2022/06/10 07:36:16;;;;;;;0.28;0.28;;;;;;;25.82;46.59;98997.63;4767158;30;20048;-96
2022/06/10 07:38:54;;;;;;;0.20;0.20;;;;;;;25.87;46.21;99010.44;4780120;30;20150;-96
2022/06/10 07:42:07;;;;;;;0.20;0.20;;;;;;;25.63;46.61;99006.53;4783504;30;20060;-96
2022/06/10 07:45:08;;;;;;;0.20;0.20;;;;;;;25.39;47.45;99004.53;4774098;30;20055;-96
2022/06/10 07:47:36;;;;;;;0.10;0.10;;;;;;;25.14;46.85;99000.88;4775518;30;20052;-96
2022/06/10 07:50:04;;;;;;;0.10;0.10;;;;;;;24.52;47.18;98997.09;4789416;29;20528;-96
2022/06/10 08:18:31;;;;;;;0.30;0.30;;;;;;;25.38;43.09;99000.16;4790023;30;20048;-96
2022/06/10 08:24:12;;;;;;;0.30;0.30;;;;;;;25.87;42.45;98983.63;4787691;29;20055;-96
2022/06/10 08:26:50;;;;;;;0.30;0.30;;;;;;;26.09;41.93;98987.84;4743732;30;20642;-95
2022/06/10 08:29:41;;;;;;;0.30;0.30;;;;;;;26.36;40.64;99002.91;4778011;30;20052;-94
2022/06/10 08:32:24;;;;;;;0.30;0.30;;;;;;;26.43;40.11;99002.28;4748986;30;20066;-96
2022/06/10 08:35:19;;;;;;;;;;;;;;;26.35;40.34;99009.56;4764894;29;20122;-96
2022/06/10 08:41:27;;;;;;;0.40;0.40;;;;;;;27.09;38.89;99012.06;5518749;24;20087;-92
2022/06/10 08:44:01;;;;;;;0.30;0.30;;;;;;;27.41;38.75;99006.63;4760260;30;20113;-90
2022/06/10 08:47:06;;;;;;;0.20;0.20;;;;;;;26.49;40.96;99005.63;4774399;30;20070;-92
2022/06/10 08:50:12;;;;;;;0.20;0.20;;;;;;;25.84;41.50;99011.13;4778721;30;20051;-92
2022/06/10 08:53:13;;;;;;;0.30;0.30;;;;;;;26.51;40.48;99017.97;4767130;29;20064;-93
2022/06/10 08:56:03;;;;;;;0.40;0.40;;;;;;;27.15;39.34;99007.91;4776903;30;20068;-93
2022/06/10 08:59:13;;;;;;;0.30;0.30;;;;;;;27.98;36.73;99004.44;4768738;29;20048;-90
2022/06/10 09:02:09;;;;;;;0.30;0.30;;;;;;;28.16;37.21;99000.13;4761157;30;20036;-94
2022/06/10 09:04:41;;;;;;;0.30;0.30;;;;;;;28.50;36.52;99003.25;4741356;30;20044;-92
2022/06/10 09:07:29;;;;;;;0.30;0.30;;;;;;;28.42;36.57;99012.56;4758193;30;20055;-94
2022/06/10 09:09:57;;;;;;;0.30;0.30;;;;;;;28.04;37.50;99006.59;4765130;30;20089;-94
2022/06/10 09:12:56;;;;;;;0.30;0.30;;;;;;;28.40;37.25;98993.50;4700749;30;20541;-94
2022/06/10 09:15:26;;;;;;;0.30;0.30;;;;;;;29.05;36.28;98992.06;4724600;30;20060;-94
2022/06/10 09:17:59;;;;;;;0.35;0.35;;;;;;;29.94;34.82;99001.13;4738227;30;20048;-92
2022/06/10 09:20:32;;;;;;;0.10;0.10;;;;;;;29.22;36.69;99001.91;4726043;30;20504;-91
2022/06/10 09:23:34;;;;;;;0.30;0.30;;;;;;;29.16;36.06;98998.63;4756733;30;20056;-94
2022/06/10 09:26:09;;;;;;;0.30;0.30;;;;;;;29.46;35.42;98990.41;4736658;30;20061;-94
2022/06/10 09:28:42;;;;;;;0.30;0.30;;;;;;;30.40;33.37;99001.03;4713160;30;20067;-94
2022/06/10 09:31:39;;;;;;;0.30;0.30;;;;;;;30.82;30.85;98997.19;4709052;30;20139;-93
2022/06/10 09:34:09;;;;;;;0.30;0.30;;;;;;;30.65;31.10;98996.56;4764784;30;20060;-93
2022/06/10 09:36:47;;;;;;;0.32;0.32;;;;;;;30.37;30.60;98990.66;4761067;30;20062;-92
2022/06/10 09:42:30;;;;;;;0.30;0.30;;;;;;;29.94;30.55;98990.81;4773505;30;20067;-93
2022/06/10 09:45:48;;;;;;;0.30;0.30;;;;;;;29.94;30.05;98988.03;4758879;30;20052;-93
2022/06/10 09:48:41;;;;;;;0.30;0.30;;;;;;;30.12;30.08;98991.06;4724415;30;20065;-93
2022/06/10 09:51:17;;;;;;;0.20;0.20;;;;;;;29.35;31.64;98995.81;4707177;30;20155;-92
2022/06/10 09:54:13;;;;;;;0.40;0.40;;;;;;;30.76;31.13;99009.81;4738316;30;20481;-95
2022/06/10 09:57:08;;;;;;;0.30;0.30;;;;;;;31.57;27.66;99005.50;4722669;30;20052;-94
2022/06/10 09:59:54;;;;;;;0.30;0.30;;;;;;;31.47;27.41;98991.13;4722992;30;20071;-94
2022/06/10 10:02:31;;;;;;;0.40;0.40;;;;;;;31.95;26.83;98990.28;4708287;30;20069;-93
2022/06/10 10:05:40;;;;;;;0.30;0.30;;;;;;;31.98;27.46;98985.91;4722997;30;20057;-92
2022/06/10 10:08:23;;;;;;;0.40;0.40;;;;;;;31.58;28.66;98985.63;4705731;30;20060;-93
2022/06/10 10:11:42;;;;;;;0.30;0.30;;;;;;;31.85;28.15;98979.81;4693268;30;20107;-92
2022/06/10 10:14:41;;;;;;;0.40;0.40;;;;;;;31.17;28.67;98979.22;4690925;30;20110;-92
2022/06/10 10:17:46;;;;;;;0.30;0.30;;;;;;;31.53;28.76;98992.34;4694509;30;20049;-91
2022/06/10 10:20:50;;;;;;;0.30;0.30;;;;;;;31.67;28.65;98980.50;4666027;30;20137;-90
2022/06/10 10:23:20;;;;;;;0.30;0.30;;;;;;;31.80;28.85;98989.34;4661438;30;20054;-93
2022/06/10 10:25:48;;;;;;;0.40;0.40;;;;;;;32.14;28.10;98992.81;4620123;30;20201;-93
2022/06/10 10:28:21;;;;;;;0.30;0.30;;;;;;;32.61;27.00;98987.47;4621716;30;20480;-92
2022/06/10 10:30:56;;;;;;;0.30;0.30;;;;;;;32.40;27.92;98988.16;4650694;30;20055;-92
2022/06/10 10:33:25;;;;;;;0.40;0.40;;;;;;;33.05;26.33;98980.06;4649973;30;20059;-91
2022/06/10 10:35:55;;;;;;;0.40;0.40;;;;;;;32.84;26.56;98986.34;4645805;30;20066;-91
2022/06/10 10:38:28;;;;;;;0.30;0.30;;;;;;;32.23;26.87;98981.28;4656777;30;20061;-94
2022/06/10 10:41:45;;;;;;;0.30;0.30;;;;;;;32.90;25.90;98962.41;4720749;30;20056;-93
2022/06/10 10:44:32;;;;;;;0.40;0.40;;;;;;;32.81;26.38;98971.97;4686232;30;20308;-91
2022/06/10 10:47:08;;;;;;;0.30;0.30;;;;;;;32.80;26.48;98966.78;4704769;30;20073;-91
2022/06/10 10:49:44;;;;;;;0.30;0.30;;;;;;;33.23;25.59;98975.28;4698276;30;20068;-90
2022/06/10 10:52:38;;;;;;;0.30;0.30;;;;;;;33.31;25.25;98974.09;4716634;30;20064;-92
2022/06/10 10:55:13;;;;;;;0.30;0.30;;;;;;;33.44;25.69;98974.50;4735520;30;20056;-92
2022/06/10 10:57:44;;;;;;;0.40;0.40;;;;;;;33.82;24.94;98970.09;4723094;30;20088;-92
2022/06/10 11:00:16;;;;;;;0.30;0.30;;;;;;;33.92;24.62;98973.28;4736228;30;20056;-92
2022/06/10 11:02:53;;;;;;;0.20;0.20;;;;;;;33.97;24.95;98967.28;4745411;30;20067;-91
2022/06/10 11:05:21;;;;;;;0.30;0.30;;;;;;;33.73;25.26;98968.91;4738957;30;20279;-93
2022/06/10 11:08:05;;;;;;;0.00;0.00;;;;;;;32.35;26.88;98983.72;4740181;30;20049;-93
2022/06/10 11:11:18;;;;;;;0.30;0.30;;;;;;;33.58;26.37;98976.53;4739723;30;20099;-94
2022/06/10 11:14:00;;;;;;;0.30;0.30;;;;;;;34.86;23.28;98988.59;4731941;30;20112;-91
2022/06/10 11:16:59;;;;;;;0.10;0.10;;;;;;;33.67;24.79;98982.50;4754496;30;20052;-92
2022/06/10 11:19:40;;;;;;;0.32;0.32;;;;;;;33.71;24.88;98976.91;4755383;30;20082;-93
2022/06/10 11:22:15;;;;;;;0.40;0.40;;;;;;;34.20;24.55;98981.63;4757780;30;20079;-94
2022/06/10 11:25:15;;;;;;;0.40;0.40;;;;;;;34.77;23.80;98977.84;4760390;30;20406;-90
2022/06/10 11:27:57;;;;;;;0.30;0.30;;;;;;;34.60;23.15;98975.94;4743528;30;20056;-93
2022/06/10 11:30:34;;;;;;;0.10;0.10;;;;;;;33.94;23.82;98968.09;4754325;30;20052;-93
2022/06/10 11:33:06;;;;;;;0.30;0.30;;;;;;;34.01;23.80;98979.28;4740108;30;20582;-92
2022/06/10 11:35:39;;;;;;;0.30;0.30;;;;;;;34.31;23.44;98976.81;4734249;30;20059;-92
2022/06/10 11:38:23;;;;;;;0.10;0.10;;;;;;;33.99;23.38;98979.66;4755764;30;20053;-92
2022/06/10 11:40:54;;;;;;;0.30;0.30;;;;;;;33.76;23.41;98980.09;4735151;30;20053;-93
2022/06/10 11:43:35;;;;;;;0.30;0.30;;;;;;;33.96;23.12;98977.69;4703126;30;1356268;-93
2022/06/10 11:46:16;;;;;;;0.40;0.40;;;;;;;34.27;22.86;98980.81;4755087;30;20055;-93
2022/06/10 11:48:55;;;;;;;0.40;0.40;;;;;;;35.37;21.96;98973.06;4774672;30;20059;-93
2022/06/10 11:51:55;;;;;;;0.10;0.10;;;;;;;34.33;22.99;98984.00;4763334;30;20052;-96
2022/06/10 11:54:34;;;;;;;0.40;0.40;;;;;;;33.79;22.82;98968.09;4758255;24;20091;-94
2022/06/10 12:00:22;;;;;;;0.30;0.30;;;;;;;36.58;20.95;98964.66;4735565;30;20099;-93
2022/06/10 12:02:53;;;;;;;0.30;0.30;;;;;;;36.18;20.92;98976.34;4736588;30;20084;-92
2022/06/10 12:05:39;;;;;;;0.30;0.30;;;;;;;36.07;21.17;98969.25;4753400;30;20126;-93
2022/06/10 12:08:30;;;;;;;0.30;0.30;;;;;;;35.38;21.12;98964.25;4742608;30;20136;-93
2022/06/10 12:11:05;;;;;;;0.30;0.30;;;;;;;35.96;20.92;98960.94;4744773;30;20061;-96
2022/06/10 12:16:36;;;;;;;0.30;0.30;;;;;;;35.33;21.62;98961.88;5035396;24;20056;-93
2022/06/10 12:19:11;;;;;;;0.30;0.30;;;;;;;35.23;21.65;98954.34;4755108;30;20052;-93
2022/06/10 12:21:42;;;;;;;0.30;0.30;;;;;;;35.46;21.66;98961.38;4738499;30;20204;-92
2022/06/10 12:24:13;;;;;;;0.40;0.40;;;;;;;35.50;21.90;98950.91;4722790;30;20052;-93
2022/06/10 12:26:55;;;;;;;0.30;0.30;;;;;;;36.01;21.33;98968.91;4737402;30;20513;-94
2022/06/10 12:30:02;;;;;;;0.40;0.40;;;;;;;36.59;20.72;98960.63;4733624;30;20086;-94
2022/06/10 12:32:49;;;;;;;0.30;0.30;;;;;;;36.49;20.60;98967.97;4740333;30;20072;-94
2022/06/10 12:35:18;;;;;;;0.30;0.30;;;;;;;36.14;21.47;98955.16;4753918;30;20056;-92
2022/06/10 12:37:49;;;;;;;0.30;0.30;;;;;;;36.70;21.09;98966.13;4439715;24;10000515;-89
2022/06/10 12:40:51;;;;;;;0.30;0.30;;;;;;;37.56;19.73;98959.25;4748732;30;20487;-94
2022/06/10 12:43:43;;;;;;;0.30;0.30;;;;;;;37.50;19.92;98951.25;4730054;30;20056;-90
2022/06/10 12:46:29;;;;;;;0.30;0.30;;;;;;;38.56;18.94;98952.50;4752986;30;20052;-92
2022/06/10 12:49:06;;;;;;;0.00;0.00;;;;;;;37.97;19.59;98960.91;4748217;30;20053;-92
2022/06/10 12:51:48;;;;;;;0.00;0.00;;;;;;;35.47;21.24;98957.34;4737474;30;20087;-93
2022/06/10 12:54:49;;;;;;;0.10;0.10;;;;;;;33.02;24.80;98959.28;4753624;30;20061;-90
2022/06/10 12:57:36;;;;;;;0.40;0.40;;;;;;;33.94;23.76;98954.88;4733540;30;20052;-90
2022/06/10 13:00:18;;;;;;;0.30;0.30;;;;;;;34.76;22.36;98962.22;4749080;30;20045;-92
2022/06/10 13:02:49;;;;;;;0.30;0.30;;;;;;;35.65;21.53;98949.59;4755503;30;20065;-91
2022/06/10 13:05:23;;;;;;;0.30;0.30;;;;;;;36.44;21.07;98954.41;4742648;30;20049;-93
2022/06/10 13:07:51;;;;;;;0.30;0.30;;;;;;;35.74;21.48;98958.34;4735615;30;20164;-93
2022/06/10 13:10:34;;;;;;;0.30;0.30;;;;;;;36.57;20.46;98966.69;4691904;30;20053;-91
2022/06/10 13:13:16;;;;;;;0.30;0.30;;;;;;;35.55;21.26;98965.31;4734519;30;20731;-91
2022/06/10 13:15:51;;;;;;;0.30;0.30;;;;;;;35.08;21.34;98934.03;4732837;30;20060;-88
2022/06/10 13:18:18;;;;;;;0.20;0.20;;;;;;;34.13;22.23;98952.84;4706982;30;20147;-91
2022/06/10 13:20:47;;;;;;;1.05;0.60;;;;;;;33.23;23.39;98959.28;4734251;30;20060;-89
2022/06/10 13:23:25;;;;;;;0.30;0.30;;;;;;;34.28;22.50;98960.00;4732706;30;20064;-91
2022/06/10 13:26:12;;;;;;;;;;;;;;;34.63;22.22;98950.69;4742864;30;20101;-90
2022/06/10 13:28:43;;;;;;;0.50;0.50;;;;;;;35.61;21.06;98950.88;4739314;30;19946;-92
2022/06/10 13:31:20;;;;;;;0.60;0.60;;;;;;;36.06;21.03;98954.41;4736315;30;20052;-91
2022/06/10 13:34:05;;;;;;;0.10;0.10;;;;;;;35.60;21.34;98950.03;4732435;30;20060;-92
2022/06/10 13:36:43;;;;;;;0.10;0.10;;;;;;;34.00;22.96;98946.88;4720529;30;20061;-93
2022/06/10 13:39:26;;;;;;;0.10;0.10;;;;;;;32.57;24.37;98953.16;4730244;30;20073;-91
2022/06/10 13:41:54;;;;;;;0.10;0.10;;;;;;;30.86;26.74;98942.31;4715919;30;20060;-91
2022/06/10 13:44:43;;;;;;;0.40;0.40;;;;;;;32.88;24.33;98942.44;4729392;30;21628;-92
2022/06/10 13:47:25;;;;;;;0.40;0.40;;;;;;;34.92;22.33;98939.31;4726455;30;20546;-87
2022/06/10 13:52:48;;;;;;;0.30;0.30;;;;;;;36.26;20.45;98951.00;4742266;30;20049;-89
2022/06/10 13:55:19;;;;;;;0.30;0.30;;;;;;;36.78;20.37;98943.09;4747537;30;20060;-94